createdAt,value
2022-08-26T00:02:03.036Z,29.9
2022-08-26T00:07:45.608Z,29.9
2022-08-26T00:13:47.846Z,29.8
2022-08-26T00:19:47.734Z,29.8
2022-08-26T00:25:22.224Z,29.8
2022-08-26T00:31:19.696Z,29.8
2022-08-26T00:36:38.006Z,29.8
2022-08-26T00:41:52.619Z,29.8
2022-08-26T00:47:35.993Z,29.8
2022-08-26T00:53:41.443Z,29.8
2022-08-26T00:59:33.654Z,29.8
2022-08-26T01:05:15.887Z,29.8
2022-08-26T01:10:48.287Z,29.8
2022-08-26T01:16:23.428Z,29.8
2022-08-26T01:22:07.337Z,29.7
2022-08-26T01:28:06.941Z,29.7
2022-08-26T01:33:58.292Z,29.6
2022-08-26T01:39:47.365Z,29.6
2022-08-26T01:45:40.993Z,29.6
2022-08-26T01:51:39.841Z,29.6
2022-08-26T01:57:59.652Z,29.6
2022-08-26T02:03:39.406Z,29.6
2022-08-26T02:09:31.848Z,29.6
2022-08-26T02:15:22.447Z,29.6
2022-08-26T02:21:24.982Z,29.6
2022-08-26T02:26:53.154Z,29.6
2022-08-26T02:32:34.921Z,29.6
2022-08-26T02:38:17.256Z,29.5
2022-08-26T02:44:06.948Z,29.5
2022-08-26T02:50:04.100Z,29.5
2022-08-26T02:55:31.075Z,29.4
2022-08-26T03:01:26.435Z,29.4
2022-08-26T03:07:25.717Z,29.4
2022-08-26T03:12:58.841Z,29.4
2022-08-26T03:18:52.124Z,29.4
2022-08-26T03:24:19.372Z,29.4
2022-08-26T03:30:06.708Z,29.4
2022-08-26T03:35:55.722Z,29.4
2022-08-26T03:41:39.597Z,29.3
2022-08-26T03:47:02.492Z,29.3
2022-08-26T03:52:59.566Z,29.1
2022-08-26T03:58:44.519Z,29.1
2022-08-26T04:04:34.307Z,29.1
2022-08-26T04:10:14.549Z,29
2022-08-26T04:15:48.639Z,28.9
2022-08-26T04:21:31.923Z,28.9
2022-08-26T04:27:16.696Z,28.8
2022-08-26T04:33:01.931Z,28.8
2022-08-26T04:38:59.891Z,28.7
2022-08-26T04:44:33.854Z,28.6
2022-08-26T04:50:27.495Z,28.4
2022-08-26T04:56:28.329Z,28.2
2022-08-26T05:02:13.632Z,27.9
2022-08-26T05:13:28.091Z,27.8
2022-08-26T05:19:16.124Z,27.7
2022-08-26T05:25:00.659Z,27.6
2022-08-26T05:30:30.015Z,27.6
2022-08-26T05:36:21.292Z,27.5
2022-08-26T05:41:55.976Z,27.4
2022-08-26T05:47:52.481Z,27.4
2022-08-26T05:53:37.433Z,27.4
2022-08-26T05:59:31.154Z,27.4
2022-08-26T06:05:19.765Z,27.4
2022-08-26T06:11:35.393Z,27.3
2022-08-26T06:17:34.273Z,27.3
2022-08-26T06:23:20.912Z,27.3
2022-08-26T06:29:24.089Z,27.3
2022-08-26T06:35:11.833Z,27.3
2022-08-26T06:40:59.871Z,27.3
2022-08-26T06:46:44.927Z,27.3
2022-08-26T06:52:29.096Z,27.3
2022-08-26T06:58:15.166Z,27.3
2022-08-26T07:04:13.650Z,27.3
2022-08-26T07:10:08.860Z,27.3
2022-08-26T07:16:09.629Z,45.2
2022-08-26T07:22:08.607Z,43.2
2022-08-26T07:27:55.415Z,41.3
2022-08-26T07:33:46.469Z,38.3
2022-08-26T07:39:43.137Z,37.2
2022-08-26T07:45:30.661Z,36.8
2022-08-26T07:51:39.208Z,36.5
2022-08-26T07:57:25.873Z,36.3
2022-08-26T08:03:20.129Z,35.9
2022-08-26T08:09:57.044Z,35.6
2022-08-26T08:15:24.311Z,35.3
2022-08-26T08:21:40.602Z,35
2022-08-26T08:27:34.662Z,42.6
2022-08-26T08:33:43.629Z,43.2
2022-08-26T08:39:32.927Z,42.2
2022-08-26T08:45:14.217Z,39.8
2022-08-26T08:51:04.307Z,45
2022-08-26T08:56:57.606Z,41.3
2022-08-26T09:02:50.732Z,39.9
2022-08-26T09:08:44.866Z,47.5
2022-08-26T09:14:35.218Z,42.3
2022-08-26T09:20:10.683Z,40.4
2022-08-26T09:26:11.914Z,50.3
2022-08-26T09:32:01.214Z,49.4
2022-08-26T09:37:55.631Z,49.1
2022-08-26T09:43:55.880Z,45.1
2022-08-26T09:49:52.721Z,45.3
2022-08-26T09:55:37.997Z,44.1
2022-08-26T10:01:22.768Z,41.4
2022-08-26T10:07:10.972Z,39.1
2022-08-26T10:12:55.991Z,36.9
2022-08-26T10:18:51.174Z,46.9
2022-08-26T10:25:02.980Z,43.3
2022-08-26T10:31:03.105Z,52.9
2022-08-26T10:37:30.927Z,47.2
2022-08-26T10:43:25.536Z,45.9
2022-08-26T10:49:12.442Z,45.4
2022-08-26T10:55:16.178Z,46.6
2022-08-26T11:01:10.314Z,50.4
2022-08-26T11:07:15.244Z,52.8
2022-08-26T11:13:05.913Z,52.6
2022-08-26T11:19:02.966Z,53.8
2022-08-26T11:25:30.252Z,50.1
2022-08-26T11:31:48.294Z,46.8
2022-08-26T11:37:36.773Z,47.9
2022-08-26T11:43:32.631Z,50.9
2022-08-26T11:49:18.482Z,49.4
2022-08-26T11:55:09.056Z,48.4
2022-08-26T12:01:09.537Z,51.6
2022-08-26T12:06:43.501Z,52.9
2022-08-26T12:12:02.231Z,53.2
2022-08-26T12:17:32.144Z,53.4
2022-08-26T12:23:24.634Z,53.8
2022-08-26T12:29:10.059Z,53.8
2022-08-26T12:35:43.937Z,53.9
2022-08-26T12:41:28.242Z,53.8
2022-08-26T12:46:40.007Z,53.4
2022-08-26T12:52:30.623Z,53.6
2022-08-26T12:57:52.182Z,53.6
2022-08-26T13:03:40.169Z,53.3
2022-08-26T13:09:23.509Z,53.4
2022-08-26T13:14:56.992Z,53.1
2022-08-26T13:20:21.908Z,52.8
2022-08-26T13:26:09.015Z,52.4
2022-08-26T13:31:44.653Z,52.1
2022-08-26T13:37:34.159Z,51.8
2022-08-26T13:43:22.842Z,51.1
2022-08-26T13:49:01.374Z,47.4
2022-08-26T13:54:48.841Z,43.8
2022-08-26T14:00:29.908Z,41.6
2022-08-26T14:05:56.894Z,39.9
2022-08-26T14:11:41.293Z,38.6
2022-08-26T14:17:32.373Z,37.6
2022-08-26T14:23:46.057Z,36.8
2022-08-26T14:29:23.154Z,35.9
2022-08-26T14:35:00.338Z,35.3
2022-08-26T14:40:40.441Z,34.6
2022-08-26T14:46:44.434Z,34.1
2022-08-26T14:52:25.398Z,33.7
2022-08-26T14:58:04.676Z,33.4
2022-08-26T15:03:58.313Z,32.9
2022-08-26T15:09:36.400Z,32.7
2022-08-26T15:15:25.656Z,32.4
2022-08-26T15:20:47.531Z,32.2
2022-08-26T15:26:15.080Z,31.9
2022-08-26T15:31:57.294Z,31.7
2022-08-26T15:37:44.767Z,31.5
2022-08-26T15:43:45.235Z,31.4
2022-08-26T15:49:51.080Z,31.3
2022-08-26T15:55:34.068Z,31.1
2022-08-26T16:01:23.963Z,31
2022-08-26T16:07:05.269Z,30.9
2022-08-26T16:12:51.338Z,30.9
2022-08-26T16:18:44.625Z,30.8
2022-08-26T16:24:47.219Z,30.7
2022-08-26T16:30:29.760Z,30.6
2022-08-26T16:36:20.543Z,30.6
2022-08-26T16:42:02.675Z,30.4
2022-08-26T16:47:48.288Z,30.4
2022-08-26T16:53:28.427Z,30.4
2022-08-26T16:59:11.384Z,30.3
2022-08-26T17:04:50.206Z,30.3
2022-08-26T17:10:31.115Z,30.3
2022-08-26T17:16:26.953Z,30.3
2022-08-26T17:22:12.823Z,30.3
2022-08-26T17:27:45.142Z,30.3
2022-08-26T17:33:10.772Z,30.3
2022-08-26T17:38:38.858Z,30.3
2022-08-26T17:44:02.088Z,30.3
2022-08-26T17:49:48.694Z,30.3
2022-08-26T17:55:04.880Z,30.3
2022-08-26T18:00:37.758Z,30.3
2022-08-26T18:06:18.900Z,30.3
2022-08-26T18:11:58.988Z,30.3
2022-08-26T18:17:31.770Z,30.3
2022-08-26T18:22:48.831Z,30.3
2022-08-26T18:28:39.819Z,30.3
2022-08-26T18:34:20.587Z,30.3
2022-08-26T18:39:50.855Z,30.4
2022-08-26T18:45:13.324Z,30.9
2022-08-26T18:50:55.219Z,31.5
2022-08-26T18:56:35.312Z,31.9
2022-08-26T19:02:23.861Z,32.2
2022-08-26T19:07:41.745Z,32.3
2022-08-26T19:13:42.238Z,32.2
2022-08-26T19:19:24.538Z,32.1
2022-08-26T19:25:17.866Z,31.9
2022-08-26T19:31:01.146Z,31.8
2022-08-26T19:36:30.904Z,31.7
2022-08-26T19:42:10.620Z,31.6
2022-08-26T19:47:43.095Z,31.5
2022-08-26T19:53:26.699Z,31.4
2022-08-26T19:59:07.774Z,31.3
2022-08-26T20:04:39.028Z,31.3
2022-08-26T20:10:41.137Z,31.2
2022-08-26T20:16:23.398Z,31.1
2022-08-26T20:22:29.761Z,31.1
2022-08-26T20:27:58.805Z,30.4
2022-08-26T20:33:27.058Z,29.9
2022-08-26T20:39:10.373Z,29.5
2022-08-26T20:44:22.592Z,29.2
2022-08-26T20:50:25.599Z,28.9
2022-08-26T20:55:51.174Z,28.7
2022-08-26T21:01:21.530Z,28.5
2022-08-26T21:07:09.166Z,28.4
2022-08-26T21:12:35.151Z,28.3
2022-08-26T21:18:35.527Z,28.2
2022-08-26T21:24:18.222Z,28.1
2022-08-26T21:29:44.613Z,28.1
2022-08-26T21:35:26.725Z,28
2022-08-26T21:41:12.685Z,28
2022-08-26T21:47:00.129Z,27.9
2022-08-26T21:52:38.617Z,27.9
2022-08-26T21:58:19.708Z,27.9
2022-08-26T22:04:03.700Z,27.9
2022-08-26T22:31:18.809Z,27.8
2022-08-26T22:37:16.882Z,27.8
2022-08-26T22:42:58.199Z,27.8
2022-08-26T22:48:25.581Z,27.8
2022-08-26T22:54:08.930Z,27.8
2022-08-26T22:59:53.830Z,27.8
2022-08-26T23:05:37.088Z,27.8
2022-08-26T23:11:03.217Z,27.8
2022-08-26T23:16:26.191Z,27.8
2022-08-26T23:21:57.309Z,27.7
2022-08-26T23:27:28.751Z,27.7
2022-08-26T23:32:19.557Z,27.7
2022-08-26T23:38:04.962Z,27.7
2022-08-26T23:43:41.929Z,27.7
2022-08-26T23:49:26.093Z,27.7
2022-08-26T23:54:46.885Z,27.7
